createdAt,value
2019-02-09T00:00:31.971Z,38.87
2019-02-09T00:03:03.782Z,39.03
2019-02-09T00:05:34.506Z,28.20
2019-02-09T00:08:06.866Z,29.30
2019-02-09T00:10:38.186Z,28.70
2019-02-09T00:13:11.756Z,33.63
2019-02-09T00:15:42.309Z,30.07
2019-02-09T00:18:13.840Z,31.97
2019-02-09T00:20:44.767Z,35.97
2019-02-09T00:23:15.909Z,29.70
2019-02-09T00:25:46.218Z,32.43
2019-02-09T00:28:17.833Z,27.20
2019-02-09T00:30:48.940Z,34.27
2019-02-09T00:33:19.466Z,31.73
2019-02-09T00:35:50.113Z,36.20
2019-02-09T00:38:20.991Z,30.30
2019-02-09T00:40:51.695Z,29.80
2019-02-09T00:43:22.520Z,31.90
2019-02-09T00:45:53.160Z,35.07
2019-02-09T00:48:23.557Z,33.23
2019-02-09T00:50:55.107Z,29.47
2019-02-09T00:53:25.602Z,28.80
2019-02-09T00:55:57.102Z,28.37
2019-02-09T00:58:27.862Z,30.23
2019-02-09T01:00:58.500Z,26.73
2019-02-09T01:03:29.241Z,30.97
2019-02-09T01:06:00.122Z,28.13
2019-02-09T01:08:30.806Z,27.00
2019-02-09T01:11:01.856Z,25.40
2019-02-09T01:13:33.094Z,29.87
2019-02-09T01:16:04.039Z,32.47
2019-02-09T01:18:35.020Z,27.23
2019-02-09T01:21:07.902Z,27.00
2019-02-09T01:23:38.555Z,22.07
2019-02-09T01:26:09.384Z,30.23
2019-02-09T01:28:39.825Z,27.87
2019-02-09T01:31:58.636Z,26.30
2019-02-09T01:34:26.989Z,25.33
2019-02-09T01:36:58.343Z,25.10
2019-02-09T01:39:29.075Z,26.40
2019-02-09T01:42:00.185Z,25.97
2019-02-09T01:44:31.821Z,30.97
2019-02-09T01:47:02.392Z,25.40
2019-02-09T01:49:33.262Z,27.83
2019-02-09T01:52:04.440Z,26.43
2019-02-09T01:54:35.101Z,22.00
2019-02-09T01:57:06.221Z,23.40
2019-02-09T01:59:37.387Z,22.27
2019-02-09T02:02:08.866Z,23.57
2019-02-09T02:04:40.462Z,21.10
2019-02-09T02:07:12.060Z,23.27
2019-02-09T02:09:43.901Z,26.20
2019-02-09T02:12:15.104Z,25.03
2019-02-09T02:14:46.101Z,25.53
2019-02-09T02:17:17.351Z,22.83
2019-02-09T02:19:48.341Z,18.73
2019-02-09T02:22:19.259Z,18.57
2019-02-09T02:24:50.581Z,26.90
2019-02-09T02:27:21.507Z,18.27
2019-02-09T02:29:53.002Z,20.40
2019-02-09T02:32:24.358Z,19.90
2019-02-09T02:34:55.436Z,18.43
2019-02-09T02:37:26.247Z,19.70
2019-02-09T02:39:56.848Z,20.70
2019-02-09T02:42:27.502Z,19.83
2019-02-09T02:44:58.421Z,19.90
2019-02-09T02:47:29.197Z,19.37
2019-02-09T02:50:00.192Z,23.43
2019-02-09T02:52:31.301Z,20.43
2019-02-09T02:55:02.961Z,19.00
2019-02-09T02:57:34.964Z,16.83
2019-02-09T03:00:09.261Z,19.77
2019-02-09T03:02:39.990Z,19.90
2019-02-09T03:05:14.042Z,19.17
2019-02-09T03:07:44.942Z,19.33
2019-02-09T03:10:16.703Z,18.90
2019-02-09T03:12:47.863Z,20.60
2019-02-09T03:15:21.070Z,23.77
2019-02-09T03:17:52.303Z,20.20
2019-02-09T03:20:23.221Z,21.87
2019-02-09T03:22:54.452Z,23.60
2019-02-09T03:25:27.533Z,25.30
2019-02-09T03:27:58.785Z,24.03
2019-02-09T03:30:29.623Z,22.07
2019-02-09T03:33:01.092Z,24.40
2019-02-09T03:35:31.652Z,25.00
2019-02-09T03:38:02.160Z,22.57
2019-02-09T03:40:33.345Z,24.20
2019-02-09T03:43:04.882Z,25.93
2019-02-09T03:45:36.542Z,21.43
2019-02-09T03:48:07.870Z,23.23
2019-02-09T03:50:38.421Z,24.63
2019-02-09T03:53:09.192Z,20.50
2019-02-09T03:55:40.444Z,19.30
2019-02-09T03:58:11.718Z,24.03
2019-02-09T04:00:43.001Z,22.93
2019-02-09T04:03:13.671Z,27.43
2019-02-09T04:05:44.381Z,25.27
2019-02-09T04:08:15.701Z,23.43
2019-02-09T04:10:46.503Z,25.67
2019-02-09T04:13:17.547Z,32.37
2019-02-09T04:15:48.662Z,27.40
2019-02-09T04:18:20.417Z,26.00
2019-02-09T04:20:51.901Z,24.43
2019-02-09T04:23:23.182Z,27.13
2019-02-09T04:25:54.628Z,27.57
2019-02-09T04:28:25.832Z,33.73
2019-02-09T04:31:05.573Z,27.27
2019-02-09T04:33:29.142Z,25.57
2019-02-09T04:36:04.163Z,27.50
2019-02-09T04:38:34.599Z,30.63
2019-02-09T04:41:05.357Z,27.73
2019-02-09T04:43:36.229Z,29.77
2019-02-09T04:46:06.990Z,26.07
2019-02-09T04:48:37.405Z,30.87
2019-02-09T04:51:07.686Z,28.03
2019-02-09T04:53:38.429Z,32.63
2019-02-09T04:56:08.976Z,24.27
2019-02-09T04:58:39.555Z,24.70
2019-02-09T05:01:13.988Z,25.17
2019-02-09T05:03:41.856Z,24.77
2019-02-09T05:06:12.146Z,28.50
2019-02-09T05:08:42.496Z,26.67
2019-02-09T05:11:12.945Z,27.37
2019-02-09T05:13:43.401Z,23.27
2019-02-09T05:16:15.869Z,25.17
2019-02-09T05:18:46.356Z,27.70
2019-02-09T05:21:16.855Z,26.30
2019-02-09T05:23:47.269Z,25.17
2019-02-09T05:26:17.786Z,25.30
2019-02-09T05:28:48.024Z,25.63
2019-02-09T05:31:23.105Z,24.20
2019-02-09T05:33:51.621Z,23.50
2019-02-09T05:36:21.984Z,23.77
2019-02-09T05:38:53.082Z,22.53
2019-02-09T05:41:24.022Z,24.77
2019-02-09T05:44:00.704Z,24.63
2019-02-09T05:46:32.771Z,28.40
2019-02-09T05:49:03.716Z,23.60
2019-02-09T05:51:34.328Z,24.63
2019-02-09T05:54:04.724Z,27.67
2019-02-09T05:56:37.253Z,26.53
2019-02-09T05:59:07.578Z,24.73
2019-02-09T06:01:37.826Z,24.20
2019-02-09T06:04:08.265Z,24.70
2019-02-09T06:06:38.785Z,24.53
2019-02-09T06:09:09.939Z,27.77
2019-02-09T06:11:40.417Z,23.73
2019-02-09T06:14:10.990Z,23.27
2019-02-09T06:16:41.445Z,24.17
2019-02-09T06:19:11.728Z,22.90
2019-02-09T06:21:42.182Z,23.93
2019-02-09T06:24:12.813Z,20.97
2019-02-09T06:26:43.140Z,24.43
2019-02-09T06:29:13.380Z,21.17
2019-02-09T06:31:43.759Z,22.70
2019-02-09T06:34:33.684Z,23.83
2019-02-09T06:37:04.019Z,25.43
2019-02-09T06:39:35.662Z,24.47
2019-02-09T06:42:05.969Z,22.97
2019-02-09T06:44:36.467Z,22.70
2019-02-09T06:47:06.931Z,21.87
2019-02-09T06:49:37.378Z,22.67
2019-02-09T06:52:09.125Z,25.00
2019-02-09T06:54:39.609Z,25.97
2019-02-09T06:57:10.598Z,25.10
2019-02-09T06:59:51.266Z,24.57
2019-02-09T07:02:22.200Z,25.60
2019-02-09T07:04:52.660Z,23.80
2019-02-09T07:07:23.170Z,26.10
2019-02-09T07:09:53.451Z,25.40
2019-02-09T07:12:23.907Z,27.60
2019-02-09T07:14:54.188Z,26.07
2019-02-09T07:17:24.641Z,28.33
2019-02-09T07:19:55.054Z,29.90
2019-02-09T07:22:25.386Z,27.87
2019-02-09T07:24:55.830Z,25.90
2019-02-09T07:27:26.211Z,25.63
2019-02-09T07:29:56.787Z,26.03
2019-02-09T07:32:27.307Z,27.63
2019-02-09T07:34:57.686Z,28.87
2019-02-09T07:37:28.218Z,27.80
2019-02-09T07:39:59.161Z,28.17
2019-02-09T07:42:29.450Z,29.33
2019-02-09T07:44:59.895Z,28.37
2019-02-09T07:47:30.264Z,27.97
2019-02-09T07:50:01.106Z,26.70
2019-02-09T07:52:31.893Z,29.40
2019-02-09T07:55:02.352Z,28.97
2019-02-09T07:57:33.545Z,31.90
2019-02-09T08:00:07.049Z,31.33
2019-02-09T08:02:56.599Z,26.63
2019-02-09T08:05:28.997Z,28.80
2019-02-09T08:08:01.991Z,28.83
2019-02-09T08:10:33.454Z,29.77
2019-02-09T08:13:04.920Z,29.23
2019-02-09T08:15:35.670Z,30.70
2019-02-09T08:18:06.644Z,29.33
2019-02-09T08:20:39.033Z,30.80
2019-02-09T08:23:10.743Z,30.00
2019-02-09T08:25:42.029Z,31.70
2019-02-09T08:28:12.939Z,30.50
2019-02-09T08:30:46.496Z,31.93
2019-02-09T08:33:17.194Z,32.00
2019-02-09T08:35:47.721Z,35.43
2019-02-09T08:38:18.279Z,32.93
2019-02-09T08:40:48.831Z,33.87
2019-02-09T08:43:19.392Z,32.93
2019-02-09T08:45:50.608Z,34.17
2019-02-09T08:48:21.750Z,34.20
2019-02-09T08:50:59.531Z,34.60
2019-02-09T08:53:30.251Z,34.10
2019-02-09T08:56:00.821Z,32.43
2019-02-09T08:58:31.327Z,32.47
2019-02-09T09:01:01.767Z,33.67
2019-02-09T09:03:31.861Z,29.73
2019-02-09T09:06:02.098Z,33.97
2019-02-09T09:08:32.408Z,31.47
2019-02-09T09:11:02.784Z,31.20
2019-02-09T09:13:33.011Z,30.63
2019-02-09T09:16:06.856Z,31.77
2019-02-09T09:18:37.194Z,30.07
2019-02-09T09:21:07.626Z,30.43
2019-02-09T09:23:37.904Z,36.90
2019-02-09T09:26:08.572Z,34.93
2019-02-09T09:28:38.945Z,30.77
2019-02-09T09:31:09.245Z,30.87
2019-02-09T09:33:39.973Z,32.50
2019-02-09T09:36:10.394Z,33.07
2019-02-09T09:38:40.720Z,34.27
2019-02-09T09:41:11.090Z,32.50
2019-02-09T09:43:41.328Z,33.97
2019-02-09T09:46:12.091Z,32.83
2019-02-09T09:48:42.368Z,34.57
2019-02-09T09:51:12.651Z,33.20
2019-02-09T09:53:42.971Z,34.30
2019-02-09T09:56:14.345Z,34.13
2019-02-09T09:58:44.643Z,34.20
2019-02-09T10:01:15.270Z,32.80
2019-02-09T10:03:45.552Z,30.73
2019-02-09T10:06:16.020Z,31.13
2019-02-09T10:08:46.139Z,27.83
2019-02-09T10:11:16.394Z,27.80
2019-02-09T10:13:47.077Z,25.93
2019-02-09T10:16:17.818Z,26.03
2019-02-09T10:18:48.164Z,27.83
2019-02-09T10:21:18.618Z,28.93
2019-02-09T10:23:48.883Z,25.73
2019-02-09T10:26:19.887Z,28.00
2019-02-09T10:28:52.355Z,25.83
2019-02-09T10:31:23.422Z,25.97
2019-02-09T10:34:02.423Z,24.60
2019-02-09T10:36:32.663Z,23.00
2019-02-09T10:39:03.220Z,24.07
2019-02-09T10:41:33.513Z,26.93
2019-02-09T10:44:03.822Z,23.77
2019-02-09T10:46:34.101Z,26.10
2019-02-09T10:49:04.928Z,28.20
2019-02-09T10:51:37.138Z,24.30
2019-02-09T10:54:08.205Z,24.40
2019-02-09T10:56:38.510Z,25.17
2019-02-09T10:59:08.890Z,26.53
2019-02-09T11:01:41.105Z,25.60
2019-02-09T11:04:11.352Z,25.70
2019-02-09T11:06:42.626Z,24.60
2019-02-09T11:09:22.723Z,23.53
2019-02-09T11:11:53.327Z,25.13
2019-02-09T11:14:23.706Z,23.47
2019-02-09T11:16:59.013Z,23.20
2019-02-09T11:19:30.130Z,23.43
2019-02-09T11:22:01.611Z,23.90
2019-02-09T11:25:26.005Z,22.53
2019-02-09T11:28:34.198Z,21.93
2019-02-09T11:31:04.722Z,23.07
2019-02-09T11:33:34.996Z,25.63
2019-02-09T11:36:05.652Z,25.10
2019-02-09T11:38:35.990Z,23.20
2019-02-09T11:41:07.186Z,23.20
2019-02-09T11:43:37.618Z,23.70
2019-02-09T11:46:11.113Z,22.90
2019-02-09T11:48:43.262Z,21.90
2019-02-09T11:51:14.652Z,22.67
2019-02-09T11:53:46.430Z,22.30
2019-02-09T11:56:16.850Z,24.60
2019-02-09T11:58:47.688Z,22.63
2019-02-09T12:01:18.223Z,24.00
2019-02-09T12:03:48.684Z,21.77
2019-02-09T12:06:19.035Z,22.63
2019-02-09T12:08:49.294Z,21.93
2019-02-09T12:11:20.874Z,23.07
2019-02-09T12:13:55.362Z,22.17
2019-02-09T12:16:23.101Z,23.70
2019-02-09T12:18:53.418Z,24.00
2019-02-09T12:21:23.894Z,23.00
2019-02-09T12:23:54.972Z,25.17
2019-02-09T12:26:27.166Z,23.80
2019-02-09T12:28:57.668Z,22.77
2019-02-09T12:31:28.000Z,23.97
2019-02-09T12:33:58.188Z,21.33
2019-02-09T12:36:28.596Z,21.93
2019-02-09T12:39:01.060Z,25.30
2019-02-09T12:41:31.944Z,24.83
2019-02-09T12:44:02.838Z,25.37
2019-02-09T12:46:33.657Z,23.53
2019-02-09T12:49:04.014Z,24.90
2019-02-09T12:51:34.382Z,21.57
2019-02-09T12:54:06.930Z,23.03
2019-02-09T12:56:37.645Z,23.77
2019-02-09T12:59:14.792Z,23.73
2019-02-09T13:01:40.204Z,24.93
2019-02-09T13:04:11.546Z,25.63
2019-02-09T13:06:44.763Z,23.27
2019-02-09T13:09:15.506Z,24.37
2019-02-09T13:11:46.740Z,22.50
2019-02-09T13:14:17.599Z,24.07
2019-02-09T13:16:48.148Z,22.20
2019-02-09T13:19:23.117Z,22.40
2019-02-09T13:21:54.477Z,23.13
2019-02-09T13:24:25.700Z,22.53
2019-02-09T13:26:57.513Z,22.87
2019-02-09T13:29:34.804Z,21.17
2019-02-09T13:32:07.652Z,22.00
2019-02-09T13:34:39.304Z,23.10
2019-02-09T13:37:12.103Z,22.37
2019-02-09T13:39:44.057Z,21.97
2019-02-09T13:42:17.349Z,22.53
2019-02-09T13:44:49.543Z,22.70
2019-02-09T13:47:21.283Z,21.67
2019-02-09T13:49:52.305Z,21.90
2019-02-09T13:52:23.589Z,21.40
2019-02-09T13:54:54.904Z,21.80
2019-02-09T13:57:25.493Z,22.10
2019-02-09T13:59:55.856Z,21.83
2019-02-09T14:02:28.045Z,21.30
2019-02-09T14:05:00.848Z,19.83
2019-02-09T14:07:31.949Z,19.80
2019-02-09T14:10:02.416Z,21.80
2019-02-09T14:12:33.249Z,21.53
2019-02-09T14:15:06.011Z,20.40
2019-02-09T14:17:36.969Z,21.57
2019-02-09T14:20:09.962Z,19.83
2019-02-09T14:22:40.992Z,21.27
2019-02-09T14:25:11.688Z,22.70
2019-02-09T14:27:42.379Z,21.30
2019-02-09T14:30:18.822Z,21.70
2019-02-09T14:32:54.725Z,23.40
2019-02-09T14:35:26.569Z,20.07
2019-02-09T14:37:59.650Z,22.77
2019-02-09T14:40:33.612Z,21.20
2019-02-09T14:43:06.041Z,21.80
2019-02-09T14:45:39.323Z,20.87
2019-02-09T14:48:11.486Z,20.73
2019-02-09T14:50:43.462Z,21.87
2019-02-09T14:53:15.308Z,22.43
2019-02-09T14:55:47.073Z,22.70
2019-02-09T14:58:19.015Z,22.40
2019-02-09T15:00:52.583Z,24.37
2019-02-09T15:03:27.010Z,23.50
2019-02-09T15:05:57.982Z,22.70
2019-02-09T15:08:43.854Z,21.77
2019-02-09T15:11:15.995Z,23.30
2019-02-09T15:13:48.186Z,23.53
2019-02-09T15:16:43.693Z,20.60
2019-02-09T15:19:16.553Z,23.53
2019-02-09T15:21:48.508Z,22.00
2019-02-09T15:24:20.067Z,21.43
2019-02-09T15:26:51.655Z,21.77
2019-02-09T15:29:23.263Z,22.20
2019-02-09T15:31:55.067Z,21.60
2019-02-09T15:34:26.700Z,22.50
2019-02-09T15:36:57.887Z,22.67
2019-02-09T15:39:29.382Z,22.43
2019-02-09T15:42:02.942Z,22.47
2019-02-09T15:44:35.329Z,22.80
2019-02-09T15:47:07.361Z,24.17
2019-02-09T15:49:39.303Z,22.97
2019-02-09T15:52:11.059Z,22.37
2019-02-09T15:54:42.782Z,23.13
2019-02-09T15:57:14.559Z,23.37
2019-02-09T15:59:46.921Z,23.53
2019-02-09T16:02:19.183Z,21.30
2019-02-09T16:04:50.226Z,25.40
2019-02-09T16:07:22.062Z,23.60
2019-02-09T16:09:53.302Z,22.40
2019-02-09T16:12:24.623Z,21.20
2019-02-09T16:14:56.312Z,22.63
2019-02-09T16:17:28.184Z,23.07
2019-02-09T16:19:59.833Z,22.63
2019-02-09T16:22:31.951Z,23.57
2019-02-09T16:25:04.232Z,21.13
2019-02-09T16:27:36.592Z,22.07
2019-02-09T16:30:10.664Z,21.80
2019-02-09T16:32:42.784Z,23.13
2019-02-09T16:35:16.041Z,24.03
2019-02-09T16:37:47.366Z,21.73
2019-02-09T16:40:20.221Z,21.40
2019-02-09T16:42:52.685Z,21.80
2019-02-09T16:45:25.951Z,19.77
2019-02-09T16:47:57.456Z,21.23
2019-02-09T16:50:31.756Z,23.43
2019-02-09T16:53:03.513Z,22.10
2019-02-09T16:55:35.308Z,21.13
2019-02-09T16:58:07.849Z,22.40
2019-02-09T17:00:42.069Z,21.80
2019-02-09T17:03:14.538Z,22.17
2019-02-09T17:05:45.803Z,21.20
2019-02-09T17:08:17.947Z,21.40
2019-02-09T17:10:49.743Z,22.60
2019-02-09T17:13:21.743Z,26.43
2019-02-09T17:15:53.344Z,24.53
2019-02-09T17:18:26.492Z,25.80
2019-02-09T17:20:58.303Z,22.97
2019-02-09T17:23:30.055Z,19.70
2019-02-09T17:26:01.812Z,22.60
2019-02-09T17:28:32.978Z,19.97
2019-02-09T17:31:04.537Z,21.87
2019-02-09T17:33:36.952Z,22.27
2019-02-09T17:36:08.627Z,22.20
2019-02-09T17:38:40.360Z,21.90
2019-02-09T17:41:12.888Z,20.63
2019-02-09T17:43:45.628Z,21.17
2019-02-09T17:46:19.008Z,20.77
2019-02-09T17:48:50.366Z,21.50
2019-02-09T17:51:24.294Z,18.67
2019-02-09T17:53:56.432Z,20.50
2019-02-09T17:56:29.104Z,20.33
2019-02-09T17:59:00.243Z,20.87
2019-02-09T18:01:34.664Z,21.90
2019-02-09T18:04:07.035Z,22.47
2019-02-09T18:06:39.150Z,20.83
2019-02-09T18:09:11.342Z,19.17
2019-02-09T18:11:42.744Z,19.33
2019-02-09T18:14:13.824Z,20.50
2019-02-09T18:16:45.586Z,19.77
2019-02-09T18:19:17.310Z,21.37
2019-02-09T18:21:49.269Z,18.63
2019-02-09T18:24:23.192Z,20.30
2019-02-09T18:26:54.753Z,19.83
2019-02-09T18:29:25.868Z,20.50
2019-02-09T18:31:57.642Z,18.93
2019-02-09T18:34:29.742Z,19.93
2019-02-09T18:37:01.089Z,19.80
2019-02-09T18:39:33.013Z,19.77
2019-02-09T18:42:04.663Z,20.50
2019-02-09T18:44:36.363Z,20.80
2019-02-09T18:47:08.077Z,19.70
2019-02-09T18:49:40.233Z,20.80
2019-02-09T18:52:12.031Z,20.53
2019-02-09T18:54:44.739Z,19.60
2019-02-09T18:57:16.638Z,20.70
2019-02-09T18:59:48.505Z,20.00
2019-02-09T19:02:20.205Z,20.07
2019-02-09T19:04:52.347Z,19.90
2019-02-09T19:07:24.655Z,21.17
2019-02-09T19:10:08.277Z,20.10
2019-02-09T19:12:40.379Z,19.57
2019-02-09T19:15:12.672Z,19.20
2019-02-09T19:17:44.989Z,20.33
2019-02-09T19:20:48.785Z,19.13
2019-02-09T19:23:20.544Z,19.43
2019-02-09T19:25:52.690Z,19.23
2019-02-09T19:28:24.807Z,19.00
2019-02-09T19:30:56.982Z,18.57
2019-02-09T19:33:28.467Z,18.90
2019-02-09T19:35:59.451Z,18.80
2019-02-09T19:38:31.085Z,18.33
2019-02-09T19:41:02.012Z,18.10
2019-02-09T19:43:32.864Z,18.90
2019-02-09T19:46:05.106Z,20.10
2019-02-09T19:48:37.491Z,20.00
2019-02-09T19:51:08.526Z,19.10
2019-02-09T19:53:44.383Z,19.47
2019-02-09T19:56:15.823Z,20.50
2019-02-09T19:58:49.823Z,18.53
2019-02-09T20:01:22.665Z,20.93
2019-02-09T20:03:55.391Z,23.43
2019-02-09T20:06:27.703Z,22.90
2019-02-09T20:09:00.194Z,22.27
2019-02-09T20:11:31.769Z,22.93
2019-02-09T20:14:03.425Z,30.93
2019-02-09T20:16:35.393Z,25.97
2019-02-09T20:19:07.591Z,21.47
2019-02-09T20:21:40.023Z,20.20
2019-02-09T20:24:12.285Z,19.37
2019-02-09T20:26:43.844Z,20.77
2019-02-09T20:29:15.282Z,21.77
2019-02-09T20:31:46.631Z,20.67
2019-02-09T20:34:17.919Z,19.97
2019-02-09T20:36:49.724Z,22.13
2019-02-09T20:39:21.281Z,20.10
2019-02-09T20:41:53.346Z,21.53
2019-02-09T20:44:24.587Z,20.97
2019-02-09T20:46:55.253Z,22.73
2019-02-09T20:49:27.467Z,22.13
2019-02-09T20:51:58.193Z,21.70
2019-02-09T20:54:28.951Z,21.10
2019-02-09T20:56:59.916Z,21.60
2019-02-09T20:59:31.723Z,22.90
2019-02-09T21:02:02.797Z,23.70
2019-02-09T21:04:35.334Z,24.20
2019-02-09T21:07:07.740Z,23.93
2019-02-09T21:09:38.430Z,21.80
2019-02-09T21:12:14.504Z,22.00
2019-02-09T21:14:45.391Z,20.47
2019-02-09T21:17:16.221Z,20.77
2019-02-09T21:19:47.082Z,20.30
2019-02-09T21:22:18.205Z,20.27
2019-02-09T21:24:49.050Z,19.57
2019-02-09T21:27:21.000Z,19.70
2019-02-09T21:29:51.670Z,18.83
2019-02-09T21:32:22.727Z,18.90
2019-02-09T21:34:53.493Z,18.40
2019-02-09T21:37:24.632Z,19.00
2019-02-09T21:39:55.294Z,19.30
2019-02-09T21:42:25.878Z,18.00
2019-02-09T21:44:56.449Z,19.53
2019-02-09T21:47:27.393Z,19.80
2019-02-09T21:49:58.472Z,18.23
2019-02-09T21:52:29.642Z,18.93
2019-02-09T21:55:00.588Z,18.53
2019-02-09T21:57:32.634Z,18.90
2019-02-09T22:00:03.591Z,19.23
2019-02-09T22:02:42.164Z,18.53
2019-02-09T22:05:08.423Z,18.03
2019-02-09T22:07:39.335Z,18.23
2019-02-09T22:10:11.826Z,17.80
2019-02-09T22:12:42.766Z,19.17
2019-02-09T22:15:13.489Z,19.67
2019-02-09T22:17:44.613Z,18.80
2019-02-09T22:20:16.964Z,16.63
2019-02-09T22:23:08.099Z,18.30
2019-02-09T22:25:38.802Z,18.60
2019-02-09T22:28:09.222Z,18.73
2019-02-09T22:30:44.498Z,18.07
2019-02-09T22:33:24.048Z,18.57
2019-02-09T22:35:46.987Z,17.23
2019-02-09T22:38:18.418Z,17.63
2019-02-09T22:40:48.880Z,18.10
2019-02-09T22:43:21.248Z,17.57
2019-02-09T22:46:21.424Z,16.93
2019-02-09T22:48:51.941Z,17.17
2019-02-09T22:51:23.452Z,17.70
2019-02-09T22:53:53.841Z,17.73
2019-02-09T22:56:24.086Z,16.43
2019-02-09T22:58:54.736Z,17.50
2019-02-09T23:01:32.565Z,17.50
2019-02-09T23:04:52.682Z,15.80
2019-02-09T23:07:34.723Z,16.90
2019-02-09T23:10:09.332Z,17.60
2019-02-09T23:12:39.676Z,16.90
2019-02-09T23:15:11.084Z,15.70
2019-02-09T23:17:41.392Z,17.67
2019-02-09T23:20:12.366Z,15.63
2019-02-09T23:22:42.590Z,16.67
2019-02-09T23:25:13.012Z,16.57
2019-02-09T23:27:43.588Z,15.70
2019-02-09T23:30:14.090Z,17.43
2019-02-09T23:32:44.429Z,14.83
2019-02-09T23:35:14.899Z,15.70
2019-02-09T23:37:45.080Z,16.03
2019-02-09T23:40:16.896Z,16.00
2019-02-09T23:42:47.378Z,15.83
2019-02-09T23:45:18.338Z,15.90
2019-02-09T23:47:48.821Z,16.27
2019-02-09T23:50:20.211Z,15.87
2019-02-09T23:52:50.575Z,15.97
2019-02-09T23:55:20.792Z,18.17
2019-02-09T23:57:51.136Z,15.83
